sensor_id;sensor_type;location;lat;lon;timestamp;pressure;altitude;pressure_sealevel;temperature;humidity
59063;BME280;44851;45.648;9.004;2024-01-11T00:01:58;100002.94;;;4.00;57.98
59063;BME280;44851;45.648;9.004;2024-01-11T00:04:23;100001.97;;;3.84;58.29
59063;BME280;44851;45.648;9.004;2024-01-11T00:06:50;100005.59;;;3.80;58.24
59063;BME280;44851;45.648;9.004;2024-01-11T00:09:15;99998.84;;;3.77;58.59
59063;BME280;44851;45.648;9.004;2024-01-11T00:11:41;99997.09;;;3.78;58.94
59063;BME280;44851;45.648;9.004;2024-01-11T00:14:06;99993.63;;;3.60;59.47
59063;BME280;44851;45.648;9.004;2024-01-11T00:16:32;99996.28;;;3.59;59.28
59063;BME280;44851;45.648;9.004;2024-01-11T00:18:57;99993.34;;;3.66;59.57
59063;BME280;44851;45.648;9.004;2024-01-11T00:21:22;99992.94;;;3.57;59.82
59063;BME280;44851;45.648;9.004;2024-01-11T00:23:48;99989.47;;;3.58;59.65
59063;BME280;44851;45.648;9.004;2024-01-11T00:26:14;99990.97;;;3.62;59.34
59063;BME280;44851;45.648;9.004;2024-01-11T00:28:40;99993.63;;;3.60;59.94
59063;BME280;44851;45.648;9.004;2024-01-11T00:31:05;99987.66;;;3.60;59.95
59063;BME280;44851;45.648;9.004;2024-01-11T00:33:32;99991.25;;;3.56;60.01
59063;BME280;44851;45.648;9.004;2024-01-11T00:35:58;99991.25;;;3.56;60.72
59063;BME280;44851;45.648;9.004;2024-01-11T00:38:23;99985.28;;;3.55;60.73
59063;BME280;44851;45.648;9.004;2024-01-11T00:40:49;99984.84;;;3.45;60.63
59063;BME280;44851;45.648;9.004;2024-01-11T00:43:14;99984.84;;;3.45;60.88
59063;BME280;44851;45.648;9.004;2024-01-11T00:45:39;99980.13;;;3.55;60.83
59063;BME280;44851;45.648;9.004;2024-01-11T00:48:05;99978.19;;;3.41;61.08
59063;BME280;44851;45.648;9.004;2024-01-11T00:50:30;99982.31;;;3.25;60.90
59063;BME280;44851;45.648;9.004;2024-01-11T00:52:56;99982.88;;;3.32;61.26
59063;BME280;44851;45.648;9.004;2024-01-11T00:55:21;99973.19;;;3.18;61.37
59063;BME280;44851;45.648;9.004;2024-01-11T00:57:47;99974.84;;;3.19;61.19
59063;BME280;44851;45.648;9.004;2024-01-11T01:00:12;99977.44;;;3.19;61.19
59063;BME280;44851;45.648;9.004;2024-01-11T01:02:41;99973.47;;;3.12;61.59
59063;BME280;44851;45.648;9.004;2024-01-11T01:05:06;99984.59;;;3.12;61.92
59063;BME280;44851;45.648;9.004;2024-01-11T01:07:32;99968.25;;;3.13;62.11
59063;BME280;44851;45.648;9.004;2024-01-11T01:09:57;99963.03;;;3.15;62.31
59063;BME280;44851;45.648;9.004;2024-01-11T01:12:23;99960.47;;;3.15;62.05
59063;BME280;44851;45.648;9.004;2024-01-11T01:14:50;99958.94;;;3.11;62.51
59063;BME280;44851;45.648;9.004;2024-01-11T01:17:16;99961.53;;;3.09;62.40
59063;BME280;44851;45.648;9.004;2024-01-11T01:19:41;99960.22;;;3.00;62.02
59063;BME280;44851;45.648;9.004;2024-01-11T01:22:06;99957.66;;;3.00;62.38
59063;BME280;44851;45.648;9.004;2024-01-11T01:24:32;99969.63;;;3.01;62.72
59063;BME280;44851;45.648;9.004;2024-01-11T01:26:57;99957.69;;;2.80;62.68
59063;BME280;44851;45.648;9.004;2024-01-11T01:29:22;99962.56;;;2.86;62.70
59063;BME280;44851;45.648;9.004;2024-01-11T01:31:48;99967.09;;;2.81;62.77
59063;BME280;44851;45.648;9.004;2024-01-11T01:34:13;99965.03;;;2.89;63.05
59063;BME280;44851;45.648;9.004;2024-01-11T01:36:40;99960.63;;;2.91;63.15
59063;BME280;44851;45.648;9.004;2024-01-11T01:39:05;99968.63;;;2.85;62.50
59063;BME280;44851;45.648;9.004;2024-01-11T01:41:31;99974.25;;;2.74;62.57
59063;BME280;44851;45.648;9.004;2024-01-11T01:43:56;99970.84;;;2.74;62.71
59063;BME280;44851;45.648;9.004;2024-01-11T01:46:23;99971.09;;;2.68;63.38
59063;BME280;44851;45.648;9.004;2024-01-11T01:48:50;99970.84;;;2.74;63.62
59063;BME280;44851;45.648;9.004;2024-01-11T01:51:16;99972.38;;;2.78;63.45
59063;BME280;44851;45.648;9.004;2024-01-11T01:53:41;99974.03;;;2.79;63.22
59063;BME280;44851;45.648;9.004;2024-01-11T01:56:08;99971.41;;;2.81;63.36
59063;BME280;44851;45.648;9.004;2024-01-11T01:58:34;99967.22;;;2.78;63.52
59063;BME280;44851;45.648;9.004;2024-01-11T02:01:00;99966.72;;;2.70;63.48
59063;BME280;44851;45.648;9.004;2024-01-11T02:03:27;99963.22;;;2.50;63.70
59063;BME280;44851;45.648;9.004;2024-01-11T02:05:54;99968.16;;;2.57;63.96
59063;BME280;44851;45.648;9.004;2024-01-11T02:08:21;99962.03;;;2.59;63.35
59063;BME280;44851;45.648;9.004;2024-01-11T02:10:47;99969.38;;;2.48;63.74
59063;BME280;44851;45.648;9.004;2024-01-11T02:13:13;99961.91;;;2.62;64.01
59063;BME280;44851;45.648;9.004;2024-01-11T02:15:39;99959.44;;;2.59;63.87
59063;BME280;44851;45.648;9.004;2024-01-11T02:18:04;99962.56;;;2.47;63.71
59063;BME280;44851;45.648;9.004;2024-01-11T02:20:31;99964.94;;;2.52;63.91
59063;BME280;44851;45.648;9.004;2024-01-11T02:23:01;99968.25;;;2.54;63.83
59063;BME280;44851;45.648;9.004;2024-01-11T02:25:28;99970.34;;;2.45;63.52
59063;BME280;44851;45.648;9.004;2024-01-11T02:27:53;99965.97;;;2.47;64.12
59063;BME280;44851;45.648;9.004;2024-01-11T02:30:18;99963.66;;;2.41;64.43
59063;BME280;44851;45.648;9.004;2024-01-11T02:32:45;99961.75;;;2.45;64.55
59063;BME280;44851;45.648;9.004;2024-01-11T02:35:18;99967.13;;;2.40;64.56
59063;BME280;44851;45.648;9.004;2024-01-11T02:37:44;99966.97;;;2.43;63.89
59063;BME280;44851;45.648;9.004;2024-01-11T02:40:12;99964.03;;;2.32;64.92
59063;BME280;44851;45.648;9.004;2024-01-11T02:42:38;99959.63;;;2.34;64.79
59063;BME280;44851;45.648;9.004;2024-01-11T02:45:03;99950.50;;;2.27;64.54
59063;BME280;44851;45.648;9.004;2024-01-11T02:47:29;99950.75;;;2.21;64.71
59063;BME280;44851;45.648;9.004;2024-01-11T02:49:55;99951.78;;;2.17;65.15
59063;BME280;44851;45.648;9.004;2024-01-11T02:52:22;99952.34;;;2.23;64.58
59063;BME280;44851;45.648;9.004;2024-01-11T02:54:47;99946.47;;;2.21;64.71
59063;BME280;44851;45.648;9.004;2024-01-11T02:57:13;99948.44;;;2.15;64.93
59063;BME280;44851;45.648;9.004;2024-01-11T02:59:39;99950.00;;;2.19;65.09
59063;BME280;44851;45.648;9.004;2024-01-11T03:02:05;99949.09;;;2.20;65.13
59063;BME280;44851;45.648;9.004;2024-01-11T03:04:30;99941.56;;;2.15;64.35
59063;BME280;44851;45.648;9.004;2024-01-11T03:06:55;99942.16;;;2.22;64.36
59063;BME280;44851;45.648;9.004;2024-01-11T03:09:21;99947.16;;;2.05;64.92
59063;BME280;44851;45.648;9.004;2024-01-11T03:11:46;99948.16;;;2.01;65.09
59063;BME280;44851;45.648;9.004;2024-01-11T03:14:12;99944.44;;;1.87;65.11
59063;BME280;44851;45.648;9.004;2024-01-11T03:16:37;99942.44;;;1.94;65.41
59063;BME280;44851;45.648;9.004;2024-01-11T03:19:05;99927.59;;;2.01;64.98
59063;BME280;44851;45.648;9.004;2024-01-11T03:21:30;99932.69;;;1.80;65.00
59063;BME280;44851;45.648;9.004;2024-01-11T03:23:55;99929.38;;;1.78;65.87
59063;BME280;44851;45.648;9.004;2024-01-11T03:26:21;99922.72;;;1.73;65.76
59063;BME280;44851;45.648;9.004;2024-01-11T03:28:46;99924.28;;;1.77;65.60
59063;BME280;44851;45.648;9.004;2024-01-11T03:31:12;99927.16;;;1.69;65.34
59063;BME280;44851;45.648;9.004;2024-01-11T03:33:37;99921.28;;;1.65;65.97
59063;BME280;44851;45.648;9.004;2024-01-11T03:36:07;99925.47;;;1.68;65.83
59063;BME280;44851;45.648;9.004;2024-01-11T03:38:32;99916.47;;;1.58;66.25
59063;BME280;44851;45.648;9.004;2024-01-11T03:40:58;99922.91;;;1.68;66.47
59063;BME280;44851;45.648;9.004;2024-01-11T03:43:23;99916.81;;;1.70;66.37
59063;BME280;44851;45.648;9.004;2024-01-11T03:45:49;99913.28;;;1.73;66.40
59063;BME280;44851;45.648;9.004;2024-01-11T03:48:14;99914.84;;;1.77;66.46
59063;BME280;44851;45.648;9.004;2024-01-11T03:50:39;99915.44;;;1.62;66.53
59063;BME280;44851;45.648;9.004;2024-01-11T03:53:05;99918.13;;;1.59;66.56
59063;BME280;44851;45.648;9.004;2024-01-11T03:55:30;99909.91;;;1.51;66.95
59063;BME280;44851;45.648;9.004;2024-01-11T03:57:55;99909.72;;;1.55;67.07
59063;BME280;44851;45.648;9.004;2024-01-11T04:00:20;99906.34;;;1.53;67.01
59063;BME280;44851;45.648;9.004;2024-01-11T04:02:46;99907.09;;;1.57;67.23
59063;BME280;44851;45.648;9.004;2024-01-11T04:05:11;99907.41;;;1.69;66.56
59063;BME280;44851;45.648;9.004;2024-01-11T04:07:37;99901.59;;;1.66;66.44
59063;BME280;44851;45.648;9.004;2024-01-11T04:10:02;99903.38;;;1.64;66.79
59063;BME280;44851;45.648;9.004;2024-01-11T04:12:28;99899.13;;;1.63;67.08
59063;BME280;44851;45.648;9.004;2024-01-11T04:14:53;99897.97;;;1.50;66.68
59063;BME280;44851;45.648;9.004;2024-01-11T04:17:18;99897.22;;;1.68;66.90
59063;BME280;44851;45.648;9.004;2024-01-11T04:19:44;99893.09;;;1.64;67.31
59063;BME280;44851;45.648;9.004;2024-01-11T04:22:09;99892.56;;;1.56;67.01
59063;BME280;44851;45.648;9.004;2024-01-11T04:24:35;99887.59;;;1.51;67.10
59063;BME280;44851;45.648;9.004;2024-01-11T04:27:00;99891.91;;;1.51;67.08
59063;BME280;44851;45.648;9.004;2024-01-11T04:29:26;99891.25;;;1.46;67.23
59063;BME280;44851;45.648;9.004;2024-01-11T04:31:51;99891.66;;;1.57;67.48
59063;BME280;44851;45.648;9.004;2024-01-11T04:34:16;99895.38;;;1.50;66.90
59063;BME280;44851;45.648;9.004;2024-01-11T04:36:42;99886.78;;;1.51;66.82
59063;BME280;44851;45.648;9.004;2024-01-11T04:39:07;99886.78;;;1.51;67.27
59063;BME280;44851;45.648;9.004;2024-01-11T04:41:35;99882.00;;;1.41;67.03
59063;BME280;44851;45.648;9.004;2024-01-11T04:44:02;99882.97;;;1.39;67.21
59063;BME280;44851;45.648;9.004;2024-01-11T04:46:27;99879.50;;;1.40;67.34
59063;BME280;44851;45.648;9.004;2024-01-11T04:48:53;99874.69;;;1.31;66.77
59063;BME280;44851;45.648;9.004;2024-01-11T04:51:19;99875.19;;;1.40;67.08
59063;BME280;44851;45.648;9.004;2024-01-11T04:53:45;99865.25;;;1.31;67.15
59063;BME280;44851;45.648;9.004;2024-01-11T04:56:13;99870.94;;;1.39;67.38
59063;BME280;44851;45.648;9.004;2024-01-11T04:58:40;99861.88;;;1.31;67.12
59063;BME280;44851;45.648;9.004;2024-01-11T05:01:06;99866.16;;;1.30;67.17
59063;BME280;44851;45.648;9.004;2024-01-11T05:03:32;99864.25;;;1.35;67.31
59063;BME280;44851;45.648;9.004;2024-01-11T05:06:00;99869.22;;;1.40;67.29
59063;BME280;44851;45.648;9.004;2024-01-11T05:08:26;99864.50;;;1.29;67.84
59063;BME280;44851;45.648;9.004;2024-01-11T05:10:53;99871.53;;;1.24;67.64
59063;BME280;44851;45.648;9.004;2024-01-11T05:13:18;99863.84;;;1.24;67.71
59063;BME280;44851;45.648;9.004;2024-01-11T05:15:44;99860.72;;;1.16;67.48
59063;BME280;44851;45.648;9.004;2024-01-11T05:18:09;99866.69;;;1.16;67.68
59063;BME280;44851;45.648;9.004;2024-01-11T05:20:35;99860.63;;;1.19;67.41
59063;BME280;44851;45.648;9.004;2024-01-11T05:23:01;99860.72;;;1.16;67.42
59063;BME280;44851;45.648;9.004;2024-01-11T05:25:26;99854.16;;;1.09;66.88
59063;BME280;44851;45.648;9.004;2024-01-11T05:27:52;99856.72;;;1.09;67.17
59063;BME280;44851;45.648;9.004;2024-01-11T05:30:17;99862.63;;;1.11;67.37
59063;BME280;44851;45.648;9.004;2024-01-11T05:32:43;99860.97;;;1.10;67.68
59063;BME280;44851;45.648;9.004;2024-01-11T05:35:08;99855.72;;;1.13;67.35
59063;BME280;44851;45.648;9.004;2024-01-11T05:37:35;99864.19;;;1.15;67.14
59063;BME280;44851;45.648;9.004;2024-01-11T05:40:01;99856.53;;;1.13;67.33
59063;BME280;44851;45.648;9.004;2024-01-11T05:42:26;99858.28;;;1.13;67.24
59063;BME280;44851;45.648;9.004;2024-01-11T05:44:51;99863.81;;;1.02;67.22
59063;BME280;44851;45.648;9.004;2024-01-11T05:47:17;99860.06;;;1.11;66.83
59063;BME280;44851;45.648;9.004;2024-01-11T05:49:42;99863.34;;;1.14;67.36
59063;BME280;44851;45.648;9.004;2024-01-11T05:52:08;99861.84;;;1.09;67.20
59063;BME280;44851;45.648;9.004;2024-01-11T05:54:33;99863.53;;;1.10;67.25
59063;BME280;44851;45.648;9.004;2024-01-11T05:56:59;99864.53;;;1.06;67.03
59063;BME280;44851;45.648;9.004;2024-01-11T05:59:25;99861.19;;;1.04;67.14
59063;BME280;44851;45.648;9.004;2024-01-11T06:01:50;99863.75;;;1.04;67.36
59063;BME280;44851;45.648;9.004;2024-01-11T06:04:16;99868.75;;;1.07;67.26
59063;BME280;44851;45.648;9.004;2024-01-11T06:06:41;99867.56;;;0.94;66.88
59063;BME280;44851;45.648;9.004;2024-01-11T06:09:07;99864.22;;;0.91;67.08
59063;BME280;44851;45.648;9.004;2024-01-11T06:11:33;99873.59;;;0.92;67.06
59063;BME280;44851;45.648;9.004;2024-01-11T06:13:58;99872.63;;;0.95;67.35
59063;BME280;44851;45.648;9.004;2024-01-11T06:16:24;99875.16;;;0.97;67.57
59063;BME280;44851;45.648;9.004;2024-01-11T06:18:50;99867.56;;;0.94;66.99
59063;BME280;44851;45.648;9.004;2024-01-11T06:21:15;99869.22;;;0.95;67.47
59063;BME280;44851;45.648;9.004;2024-01-11T06:23:45;99866.91;;;0.88;67.35
59063;BME280;44851;45.648;9.004;2024-01-11T06:26:10;99875.34;;;0.90;67.77
59063;BME280;44851;45.648;9.004;2024-01-11T06:28:35;99868.47;;;0.92;67.58
59063;BME280;44851;45.648;9.004;2024-01-11T06:31:01;99873.81;;;0.86;67.84
59063;BME280;44851;45.648;9.004;2024-01-11T06:33:26;99876.44;;;0.85;67.78
59063;BME280;44851;45.648;9.004;2024-01-11T06:35:52;99881.75;;;0.80;68.10
59063;BME280;44851;45.648;9.004;2024-01-11T06:38:18;99877.25;;;0.85;67.66
59063;BME280;44851;45.648;9.004;2024-01-11T06:40:43;99882.53;;;0.82;67.94
59063;BME280;44851;45.648;9.004;2024-01-11T06:43:08;99880.06;;;0.79;67.93
59063;BME280;44851;45.648;9.004;2024-01-11T06:45:34;99872.03;;;0.88;67.86
59063;BME280;44851;45.648;9.004;2024-01-11T06:48:00;99876.50;;;0.83;67.74
59063;BME280;44851;45.648;9.004;2024-01-11T06:50:25;99880.28;;;0.73;67.81
59063;BME280;44851;45.648;9.004;2024-01-11T06:52:51;99869.09;;;0.76;68.12
59063;BME280;44851;45.648;9.004;2024-01-11T06:55:16;99881.09;;;0.75;68.05
59063;BME280;44851;45.648;9.004;2024-01-11T06:57:41;99876.38;;;0.63;67.73
59063;BME280;44851;45.648;9.004;2024-01-11T07:00:07;99879.63;;;0.68;68.46
59063;BME280;44851;45.648;9.004;2024-01-11T07:02:32;99876.38;;;0.63;68.22
59063;BME280;44851;45.648;9.004;2024-01-11T07:04:58;99875.28;;;0.70;68.20
59063;BME280;44851;45.648;9.004;2024-01-11T07:07:23;99873.19;;;0.56;67.72
59063;BME280;44851;45.648;9.004;2024-01-11T07:09:49;99880.50;;;0.67;68.26
59063;BME280;44851;45.648;9.004;2024-01-11T07:12:14;99876.50;;;0.60;68.17
59063;BME280;44851;45.648;9.004;2024-01-11T07:14:39;99867.91;;;0.61;68.21
59063;BME280;44851;45.648;9.004;2024-01-11T07:17:05;99877.94;;;0.67;68.48
59063;BME280;44851;45.648;9.004;2024-01-11T07:19:30;99874.53;;;0.67;68.25
59063;BME280;44851;45.648;9.004;2024-01-11T07:21:56;99866.75;;;0.70;68.35
59063;BME280;44851;45.648;9.004;2024-01-11T07:24:21;99866.13;;;0.63;68.43
59063;BME280;44851;45.648;9.004;2024-01-11T07:26:46;99871.25;;;0.63;68.33
59063;BME280;44851;45.648;9.004;2024-01-11T07:29:12;99868.56;;;0.66;68.34
59063;BME280;44851;45.648;9.004;2024-01-11T07:31:37;99868.56;;;0.66;68.63
59063;BME280;44851;45.648;9.004;2024-01-11T07:34:03;99867.00;;;0.62;68.44
59063;BME280;44851;45.648;9.004;2024-01-11T07:36:28;99863.44;;;0.66;68.73
59063;BME280;44851;45.648;9.004;2024-01-11T07:38:54;99867.44;;;0.73;68.76
59063;BME280;44851;45.648;9.004;2024-01-11T07:41:21;99868.19;;;0.77;69.00
59063;BME280;44851;45.648;9.004;2024-01-11T07:43:47;99864.81;;;0.75;68.89
59063;BME280;44851;45.648;9.004;2024-01-11T07:46:12;99866.56;;;0.74;68.76
59063;BME280;44851;45.648;9.004;2024-01-11T07:48:37;99867.00;;;0.85;68.52
59063;BME280;44851;45.648;9.004;2024-01-11T07:51:03;99868.69;;;0.86;68.50
59063;BME280;44851;45.648;9.004;2024-01-11T07:53:30;99873.16;;;0.81;68.61
59063;BME280;44851;45.648;9.004;2024-01-11T07:55:57;99872.78;;;0.90;68.46
59063;BME280;44851;45.648;9.004;2024-01-11T07:58:22;99873.59;;;0.92;68.03
59063;BME280;44851;45.648;9.004;2024-01-11T08:00:48;99876.81;;;0.98;68.30
59063;BME280;44851;45.648;9.004;2024-01-11T08:03:14;99867.88;;;1.08;68.10
59063;BME280;44851;45.648;9.004;2024-01-11T08:05:39;99871.88;;;1.15;68.06
59063;BME280;44851;45.648;9.004;2024-01-11T08:08:04;99865.25;;;1.09;68.02
59063;BME280;44851;45.648;9.004;2024-01-11T08:10:30;99874.38;;;1.16;68.27
59063;BME280;44851;45.648;9.004;2024-01-11T08:12:59;99875.28;;;1.15;67.92
59063;BME280;44851;45.648;9.004;2024-01-11T08:15:25;99876.13;;;1.16;67.96
59063;BME280;44851;45.648;9.004;2024-01-11T08:17:50;99871.94;;;1.13;68.30
59063;BME280;44851;45.648;9.004;2024-01-11T08:20:16;99869.22;;;1.18;68.11
59063;BME280;44851;45.648;9.004;2024-01-11T08:22:44;99878.34;;;1.25;68.46
59063;BME280;44851;45.648;9.004;2024-01-11T08:25:11;99882.47;;;1.29;68.76
59063;BME280;44851;45.648;9.004;2024-01-11T08:27:38;99874.63;;;1.32;68.58
59063;BME280;44851;45.648;9.004;2024-01-11T08:30:04;99878.28;;;1.27;68.71
59063;BME280;44851;45.648;9.004;2024-01-11T08:32:30;99877.19;;;1.32;68.65
59063;BME280;44851;45.648;9.004;2024-01-11T08:34:57;99879.50;;;1.40;69.13
59063;BME280;44851;45.648;9.004;2024-01-11T08:37:22;99878.41;;;1.46;68.31
59063;BME280;44851;45.648;9.004;2024-01-11T08:39:48;99878.16;;;1.52;68.67
59063;BME280;44851;45.648;9.004;2024-01-11T08:42:13;99879.22;;;1.68;68.51
59063;BME280;44851;45.648;9.004;2024-01-11T08:44:43;99875.91;;;1.86;67.84
59063;BME280;44851;45.648;9.004;2024-01-11T08:47:09;99885.50;;;2.03;67.36
59063;BME280;44851;45.648;9.004;2024-01-11T08:49:36;99872.59;;;2.25;66.85
59063;BME280;44851;45.648;9.004;2024-01-11T08:52:02;99868.25;;;2.46;66.63
59063;BME280;44851;45.648;9.004;2024-01-11T08:54:28;99868.28;;;2.65;66.01
59063;BME280;44851;45.648;9.004;2024-01-11T08:56:53;99863.69;;;2.90;65.32
59063;BME280;44851;45.648;9.004;2024-01-11T08:59:18;99872.09;;;3.13;64.41
59063;BME280;44851;45.648;9.004;2024-01-11T09:01:44;99870.06;;;3.38;63.65
59063;BME280;44851;45.648;9.004;2024-01-11T09:04:09;99874.75;;;3.66;63.12
59063;BME280;44851;45.648;9.004;2024-01-11T09:06:34;99869.06;;;3.94;62.93
59063;BME280;44851;45.648;9.004;2024-01-11T09:09:00;99869.59;;;4.36;62.39
59063;BME280;44851;45.648;9.004;2024-01-11T09:11:25;99864.41;;;4.69;62.35
59063;BME280;44851;45.648;9.004;2024-01-11T09:13:50;99867.03;;;5.00;61.19
59063;BME280;44851;45.648;9.004;2024-01-11T09:16:16;99869.38;;;5.21;59.87
59063;BME280;44851;45.648;9.004;2024-01-11T09:18:43;99869.03;;;5.27;58.67
59063;BME280;44851;45.648;9.004;2024-01-11T09:21:08;99876.59;;;5.61;59.50
59063;BME280;44851;45.648;9.004;2024-01-11T09:23:34;99866.59;;;5.85;58.83
59063;BME280;44851;45.648;9.004;2024-01-11T09:26:00;99869.53;;;5.95;57.84
59063;BME280;44851;45.648;9.004;2024-01-11T09:28:25;99871.88;;;6.14;56.74
59063;BME280;44851;45.648;9.004;2024-01-11T09:30:51;99877.00;;;6.30;57.36
59063;BME280;44851;45.648;9.004;2024-01-11T09:33:16;99876.28;;;6.56;55.70
59063;BME280;44851;45.648;9.004;2024-01-11T09:35:41;99872.94;;;6.83;56.73
59063;BME280;44851;45.648;9.004;2024-01-11T09:38:07;99870.91;;;6.88;55.00
59063;BME280;44851;45.648;9.004;2024-01-11T09:40:32;99875.88;;;7.05;55.55
59063;BME280;44851;45.648;9.004;2024-01-11T09:42:58;99867.97;;;7.07;55.44
59063;BME280;44851;45.648;9.004;2024-01-11T09:45:24;99868.38;;;7.42;55.18
59063;BME280;44851;45.648;9.004;2024-01-11T09:47:50;99866.22;;;7.61;54.11
59063;BME280;44851;45.648;9.004;2024-01-11T09:50:17;99862.09;;;7.86;54.18
59063;BME280;44851;45.648;9.004;2024-01-11T09:52:47;99854.88;;;7.77;52.68
59063;BME280;44851;45.648;9.004;2024-01-11T09:55:16;99858.06;;;7.40;52.88
59063;BME280;44851;45.648;9.004;2024-01-11T09:57:47;99850.34;;;7.80;53.52
59063;BME280;44851;45.648;9.004;2024-01-11T10:00:22;99848.56;;;7.81;52.12
59063;BME280;44851;45.648;9.004;2024-01-11T10:02:48;99840.94;;;8.17;53.07
59063;BME280;44851;45.648;9.004;2024-01-11T10:05:16;99845.06;;;8.20;53.02
59063;BME280;44851;45.648;9.004;2024-01-11T10:07:42;99837.63;;;8.28;52.43
59063;BME280;44851;45.648;9.004;2024-01-11T10:10:08;99833.44;;;8.25;50.99
59063;BME280;44851;45.648;9.004;2024-01-11T10:12:37;99826.97;;;8.57;50.82
59063;BME280;44851;45.648;9.004;2024-01-11T10:15:07;99819.91;;;8.71;51.70
59063;BME280;44851;45.648;9.004;2024-01-11T10:17:42;99812.84;;;8.61;50.00
59063;BME280;44851;45.648;9.004;2024-01-11T10:20:11;99808.47;;;8.61;50.41
59063;BME280;44851;45.648;9.004;2024-01-11T10:22:39;99810.59;;;8.93;51.18
59063;BME280;44851;45.648;9.004;2024-01-11T10:25:13;99811.72;;;8.89;49.33
59063;BME280;44851;45.648;9.004;2024-01-11T10:27:45;99803.09;;;8.64;50.35
59063;BME280;44851;45.648;9.004;2024-01-11T10:30:15;99798.03;;;8.87;51.01
59063;BME280;44851;45.648;9.004;2024-01-11T10:32:45;99787.28;;;9.15;50.79
59063;BME280;44851;45.648;9.004;2024-01-11T10:35:10;99792.88;;;9.35;50.16
59063;BME280;44851;45.648;9.004;2024-01-11T10:37:36;99778.72;;;9.26;49.72
59063;BME280;44851;45.648;9.004;2024-01-11T10:40:05;99775.47;;;9.59;49.30
59063;BME280;44851;45.648;9.004;2024-01-11T10:42:36;99776.19;;;9.72;49.84
59063;BME280;44851;45.648;9.004;2024-01-11T10:45:10;99776.34;;;9.93;49.36
59063;BME280;44851;45.648;9.004;2024-01-11T10:47:40;99775.66;;;9.91;49.52
59063;BME280;44851;45.648;9.004;2024-01-11T10:50:10;99765.81;;;10.06;48.80
59063;BME280;44851;45.648;9.004;2024-01-11T10:52:51;99762.53;;;10.15;48.47
59063;BME280;44851;45.648;9.004;2024-01-11T10:55:19;99763.47;;;10.03;47.68
59063;BME280;44851;45.648;9.004;2024-01-11T10:57:47;99764.44;;;10.13;47.13
59063;BME280;44851;45.648;9.004;2024-01-11T11:00:13;99763.88;;;9.74;47.64
59063;BME280;44851;45.648;9.004;2024-01-11T11:02:41;99755.25;;;9.85;47.19
59063;BME280;44851;45.648;9.004;2024-01-11T11:05:08;99750.66;;;9.89;47.18
59063;BME280;44851;45.648;9.004;2024-01-11T11:07:36;99761.53;;;9.82;47.77
59063;BME280;44851;45.648;9.004;2024-01-11T11:10:03;99748.66;;;9.92;48.92
59063;BME280;44851;45.648;9.004;2024-01-11T11:12:32;99744.41;;;10.14;48.13
59063;BME280;44851;45.648;9.004;2024-01-11T11:14:58;99747.22;;;10.33;47.82
59063;BME280;44851;45.648;9.004;2024-01-11T11:17:24;99742.16;;;10.31;47.67
59063;BME280;44851;45.648;9.004;2024-01-11T11:19:52;99738.00;;;10.40;47.40
59063;BME280;44851;45.648;9.004;2024-01-11T11:22:17;99726.50;;;10.43;46.72
59063;BME280;44851;45.648;9.004;2024-01-11T11:24:44;99722.34;;;10.51;46.45
59063;BME280;44851;45.648;9.004;2024-01-11T11:27:13;99721.28;;;10.76;47.16
59063;BME280;44851;45.648;9.004;2024-01-11T11:29:39;99703.72;;;10.78;45.79
59063;BME280;44851;45.648;9.004;2024-01-11T11:32:05;99705.28;;;11.02;45.22
59063;BME280;44851;45.648;9.004;2024-01-11T11:34:40;99699.56;;;11.08;44.05
59063;BME280;44851;45.648;9.004;2024-01-11T11:37:08;99691.13;;;10.83;45.07
59063;BME280;44851;45.648;9.004;2024-01-11T11:39:34;99689.47;;;10.82;45.59
59063;BME280;44851;45.648;9.004;2024-01-11T11:41:59;99685.81;;;11.06;45.78
59063;BME280;44851;45.648;9.004;2024-01-11T11:44:26;99681.19;;;10.77;44.24
59063;BME280;44851;45.648;9.004;2024-01-11T11:46:51;99676.56;;;11.02;45.24
59063;BME280;44851;45.648;9.004;2024-01-11T11:49:17;99675.03;;;11.31;45.93
59063;BME280;44851;45.648;9.004;2024-01-11T11:51:43;99675.47;;;11.36;44.17
59063;BME280;44851;45.648;9.004;2024-01-11T11:54:08;99671.31;;;11.13;44.70
59063;BME280;44851;45.648;9.004;2024-01-11T11:56:39;99663.69;;;11.21;43.65
59063;BME280;44851;45.648;9.004;2024-01-11T11:59:06;99662.56;;;11.14;43.46
59063;BME280;44851;45.648;9.004;2024-01-11T12:01:32;99656.44;;;11.46;43.28
59063;BME280;44851;45.648;9.004;2024-01-11T12:03:57;99648.09;;;11.52;42.46
59063;BME280;44851;45.648;9.004;2024-01-11T12:06:23;99648.38;;;11.58;43.10
59063;BME280;44851;45.648;9.004;2024-01-11T12:08:52;99639.41;;;11.72;42.11
59063;BME280;44851;45.648;9.004;2024-01-11T12:11:19;99632.81;;;11.47;42.74
59063;BME280;44851;45.648;9.004;2024-01-11T12:13:49;99634.13;;;11.62;42.23
59063;BME280;44851;45.648;9.004;2024-01-11T12:16:14;99638.72;;;11.80;42.61
59063;BME280;44851;45.648;9.004;2024-01-11T12:18:40;99639.50;;;11.71;41.08
59063;BME280;44851;45.648;9.004;2024-01-11T12:21:06;99635.38;;;11.68;41.93
59063;BME280;44851;45.648;9.004;2024-01-11T12:23:33;99638.97;;;11.67;41.22
59063;BME280;44851;45.648;9.004;2024-01-11T12:26:03;99630.75;;;11.81;41.15
59063;BME280;44851;45.648;9.004;2024-01-11T12:28:33;99623.78;;;11.91;41.67
59063;BME280;44851;45.648;9.004;2024-01-11T12:30:58;99625.28;;;11.54;41.18
59063;BME280;44851;45.648;9.004;2024-01-11T12:33:25;99618.66;;;11.50;41.52
59063;BME280;44851;45.648;9.004;2024-01-11T12:35:51;99616.38;;;11.66;41.66
59063;BME280;44851;45.648;9.004;2024-01-11T12:38:17;99612.31;;;11.73;42.56
59063;BME280;44851;45.648;9.004;2024-01-11T12:40:42;99615.31;;;11.99;42.12
59063;BME280;44851;45.648;9.004;2024-01-11T12:43:07;99609.47;;;11.86;41.49
59063;BME280;44851;45.648;9.004;2024-01-11T12:45:34;99602.97;;;11.80;40.40
59063;BME280;44851;45.648;9.004;2024-01-11T12:48:01;99598.00;;;11.77;41.90
59063;BME280;44851;45.648;9.004;2024-01-11T12:50:27;99592.63;;;11.69;42.28
59063;BME280;44851;45.648;9.004;2024-01-11T12:53:12;99594.34;;;11.49;41.02
59063;BME280;44851;45.648;9.004;2024-01-11T12:55:46;99590.47;;;11.74;41.47
59063;BME280;44851;45.648;9.004;2024-01-11T12:58:12;99582.81;;;11.52;41.38
59063;BME280;44851;45.648;9.004;2024-01-11T13:00:38;99581.06;;;11.62;42.01
59063;BME280;44851;45.648;9.004;2024-01-11T13:03:04;99587.91;;;11.53;41.30
59063;BME280;44851;45.648;9.004;2024-01-11T13:05:30;99577.25;;;11.35;41.31